Nur fliegen ist schöner ....

Willkommen beim Flugservice Bautzen GmbH

Wir sind eine nach europäischen Richtlinien zugelassene Flugschule und lizenziertes Luftfahrtunternehmen. Bei uns können sie nicht nur Rundflüge über die Oberlausitz oder Sachsen buchen, sondern in unserer Flugschule selber das Fliegen erlernen. Erfahrene Fluglehrer stehen Ihnen dabei zur Seite.

Wir bieten Ihnen außerdem spezielle Flüge zur Vermessung oder Fotoflüge für Luftbildaufnahmen an. In Zusammenarbeit mit dem Fallschirmsportclub Dresden und dem Cottbuser Fallschirmsportclub setzen wir am Flugplatz Bautzen und Neuhausen Fallschirmspringer ab.
Schauen Sie sich in Ruhe bei uns um und wenn Sie Fragen haben oder weitere Informationen benötigen, scheuen Sie sich nicht Kontakt mit uns aufzunehmen.

Gutscheine für Rundflüge und Tandemsprünge können Sie ganz leicht auch online in unserem Shop erwerben.

Terminkalender

Letzter Monat Januar 2022 Nächster Monat
Mo Di Mi Do Fr Sa So
week 52 1 2
week 1 3 4 5 6 7 8 9
week 2 10 11 12 13 14 15 16
week 3 17 18 19 20 21 22 23
week 4 24 25 26 27 28 29 30
week 5 31

Flugwetterinfo

[Quelle: ADDS]
METAR
EDDC 161820Z 27011KT 230V320 9999 -RA OVC012 02/00 Q1021 TEMPO OVC009 =
EDDC 161700Z 1618/1718 26010G20KT 8000 BKN010 OVC015 TEMPO 1618/1704 4500 -DZ BKN009 BECMG 1700/1704 27015G25KT TEMPO 1707/1714 27020G35KT PROB30 TEMPO 1710/1714 RA BECMG 1715/1717 30010KT
TAF
EDDC 161700Z 1618/1718 26010G20KT 8000 BKN010 OVC015 TEMPO 1618/1704 4500 -DZ BKN009 BECMG 1700/1704 27015G25KT TEMPO 1707/1714 27020G35KT PROB30 TEMPO 1710/1714 RA BECMG 1715/1717 30010KT =
SR / SS: 06:58 / 15:24 UTC (EDAB Flugplatz Bautzen 2022-01-16)

Öffnungszeiten

des Flugplatzes Bautzen erfahren Sie hier:

flugplatz bautzen logo
Flugservice Bautzen GmbH, Kornmarkt 34, 02625 Bautzen  Telefon: +49 (3591) 211105, Telefax: +49 (3591) 274512, E-Mail:  flugservice(at)fsbautzen.de